Time;durP1;ratioP1;P1;durP2;ratioP2;P2;SDS_P1;SDS_P2;PMS_P1;PMS_P2;Temp;Humidity;BMP_temperature;BMP_pressure;BME280_temperature;BME280_humidity;BME280_pressure;Samples;Min_cycle;Max_cycle;Signal;HPM_P1;HPM_P2
2023/12/12 00:01:51;;;;;;;6.50;3.20;;;;;;;;;;4977572;28;20033;-92
2023/12/12 00:04:17;;;;;;;6.72;3.25;;;;;;;;;;4993082;28;20136;-92
2023/12/12 00:06:42;;;;;;;9.95;3.20;;;;;;;;;;4993014;28;20034;-92
2023/12/12 00:09:08;;;;;;;6.90;3.53;;;;;;;;;;4978727;28;20037;-93
2023/12/12 00:11:33;;;;;;;12.68;4.40;;;;;;;;;;4993280;28;20395;-95
2023/12/12 00:13:59;;;;;;;9.20;4.07;;;;;;;;;;5006946;28;20449;-95
2023/12/12 00:16:24;;;;;;;8.80;3.60;;;;;;;;;;4977712;28;20187;-94
2023/12/12 00:18:50;;;;;;;10.07;3.58;;;;;;;;;;4994277;28;20514;-93
2023/12/12 00:21:15;;;;;;;8.13;3.58;;;;;;;;;;4993180;28;20064;-93
2023/12/12 00:23:41;;;;;;;7.43;3.50;;;;;;;;;;4994475;28;20041;-93
2023/12/12 00:26:07;;;;;;;9.98;3.88;;;;;;;;;;5004827;28;20048;-94
2023/12/12 00:28:34;;;;;;;9.50;3.67;;;;;;;;;;4993390;28;20099;-92
2023/12/12 00:31:00;;;;;;;8.10;3.67;;;;;;;;;;4978313;28;20037;-93
2023/12/12 00:33:25;;;;;;;9.68;4.18;;;;;;;;;;4992481;28;20041;-94
2023/12/12 00:35:51;;;;;;;11.13;4.05;;;;;;;;;;4980775;28;20116;-94
2023/12/12 00:38:16;;;;;;;11.73;4.30;;;;;;;;;;4993410;28;20039;-83
2023/12/12 00:40:52;;;;;;;9.13;4.00;;;;;;;;;;5022239;28;20053;-83
2023/12/12 00:43:20;;;;;;;10.65;4.80;;;;;;;;;;5023381;28;20029;-83
2023/12/12 00:45:45;;;;;;;10.05;4.53;;;;;;;;;;5025947;28;20065;-83
2023/12/12 00:48:11;;;;;;;10.68;5.10;;;;;;;;;;5023077;28;20069;-83
2023/12/12 00:50:38;;;;;;;11.35;5.35;;;;;;;;;;5023728;28;20514;-83
2023/12/12 00:53:04;;;;;;;9.73;4.95;;;;;;;;;;5023918;28;20882;-83
2023/12/12 00:55:32;;;;;;;10.38;5.35;;;;;;;;;;5027746;28;20044;-83
2023/12/12 00:57:59;;;;;;;8.25;4.72;;;;;;;;;;5006730;28;20117;-83
2023/12/12 01:00:26;;;;;;;10.48;5.03;;;;;;;;;;5021283;28;20025;-82
2023/12/12 01:02:53;;;;;;;10.30;5.50;;;;;;;;;;5023529;28;20032;-83
2023/12/12 01:05:18;;;;;;;11.48;5.95;;;;;;;;;;5021633;28;20033;-83
2023/12/12 01:07:45;;;;;;;12.45;5.35;;;;;;;;;;5020764;28;20048;-83
2023/12/12 01:10:10;;;;;;;13.25;5.10;;;;;;;;;;4997049;28;20053;-83
2023/12/12 01:12:39;;;;;;;9.43;5.15;;;;;;;;;;5023736;28;20447;-83
2023/12/12 01:15:05;;;;;;;12.18;5.68;;;;;;;;;;5022962;28;20075;-82
2023/12/12 01:17:31;;;;;;;12.48;5.68;;;;;;;;;;5026423;28;20030;-83
2023/12/12 01:19:56;;;;;;;11.18;5.88;;;;;;;;;;4988706;28;20025;-83
2023/12/12 01:22:22;;;;;;;11.75;5.82;;;;;;;;;;5012202;28;20120;-83
2023/12/12 01:24:48;;;;;;;13.45;6.05;;;;;;;;;;5025915;28;20439;-83
2023/12/12 01:27:14;;;;;;;12.38;5.85;;;;;;;;;;5024889;28;20035;-83
2023/12/12 01:29:40;;;;;;;14.95;6.22;;;;;;;;;;5021168;28;20080;-83
2023/12/12 01:32:05;;;;;;;12.48;6.30;;;;;;;;;;5024412;28;20029;-83
2023/12/12 01:34:31;;;;;;;11.45;6.35;;;;;;;;;;5025616;28;20030;-83
2023/12/12 01:36:56;;;;;;;11.93;6.30;;;;;;;;;;5023856;28;20033;-83
2023/12/12 01:39:23;;;;;;;17.15;7.10;;;;;;;;;;5023491;28;20095;-83
2023/12/12 01:41:50;;;;;;;15.10;5.80;;;;;;;;;;5007017;28;20026;-83
2023/12/12 01:44:16;;;;;;;14.80;6.60;;;;;;;;;;5009986;28;20056;-83
2023/12/12 01:46:47;;;;;;;11.60;5.65;;;;;;;;;;5021352;28;20032;-82
2023/12/12 01:49:18;;;;;;;11.60;5.63;;;;;;;;;;5023325;28;20026;-83
2023/12/12 01:51:47;;;;;;;14.02;5.85;;;;;;;;;;5024262;28;20158;-82
2023/12/12 01:54:15;;;;;;;10.32;5.57;;;;;;;;;;5022546;28;20504;-83
2023/12/12 01:56:43;;;;;;;13.77;6.90;;;;;;;;;;5022880;28;20039;-83
2023/12/12 01:59:08;;;;;;;12.57;5.97;;;;;;;;;;5022882;28;20037;-83
2023/12/12 02:01:35;;;;;;;14.25;6.00;;;;;;;;;;5025654;28;20457;-83
2023/12/12 02:04:01;;;;;;;10.32;5.82;;;;;;;;;;4994749;28;20060;-83
2023/12/12 02:06:28;;;;;;;10.98;5.68;;;;;;;;;;5021632;28;20037;-83
2023/12/12 02:08:54;;;;;;;9.20;5.60;;;;;;;;;;5023196;28;20091;-83
2023/12/12 02:11:21;;;;;;;11.30;6.30;;;;;;;;;;5023993;28;20033;-83
2023/12/12 02:13:47;;;;;;;8.80;5.57;;;;;;;;;;4988565;28;20052;-83
2023/12/12 02:16:17;;;;;;;13.75;6.15;;;;;;;;;;5005939;28;20030;-83
2023/12/12 02:18:42;;;;;;;13.43;7.13;;;;;;;;;;5023372;28;20037;-94
2023/12/12 02:21:07;;;;;;;10.98;5.85;;;;;;;;;;4996269;28;20377;-92
2023/12/12 02:23:33;;;;;;;15.20;5.72;;;;;;;;;;4997020;28;20072;-92
2023/12/12 02:25:59;;;;;;;11.77;5.72;;;;;;;;;;5006925;28;20029;-93
2023/12/12 02:28:25;;;;;;;13.95;6.05;;;;;;;;;;4996369;28;20029;-92
2023/12/12 02:30:51;;;;;;;9.02;5.38;;;;;;;;;;5007859;28;20025;-94
2023/12/12 02:33:16;;;;;;;12.27;5.93;;;;;;;;;;4996617;28;20116;-94
2023/12/12 02:35:42;;;;;;;13.13;5.82;;;;;;;;;;5001189;28;20033;-94
2023/12/12 02:38:08;;;;;;;9.75;5.50;;;;;;;;;;4982829;28;20052;-92
2023/12/12 02:40:33;;;;;;;15.05;5.90;;;;;;;;;;4999020;28;20083;-93
2023/12/12 02:42:59;;;;;;;14.15;6.30;;;;;;;;;;5009071;28;20026;-93
2023/12/12 02:45:24;;;;;;;14.35;5.70;;;;;;;;;;5007698;28;20025;-91
2023/12/12 02:47:50;;;;;;;12.77;6.22;;;;;;;;;;4976105;28;20037;-93
2023/12/12 02:50:17;;;;;;;13.13;5.50;;;;;;;;;;4993000;28;20029;-94
2023/12/12 02:52:42;;;;;;;12.15;6.20;;;;;;;;;;5005820;28;20479;-93
2023/12/12 02:55:08;;;;;;;12.10;5.28;;;;;;;;;;4980218;28;20040;-94
2023/12/12 02:57:33;;;;;;;11.57;5.50;;;;;;;;;;4976966;28;20050;-83
2023/12/12 03:00:01;;;;;;;11.52;6.07;;;;;;;;;;5021811;28;20030;-83
2023/12/12 03:02:26;;;;;;;14.98;5.60;;;;;;;;;;5004165;28;20029;-83
2023/12/12 03:04:52;;;;;;;11.77;5.22;;;;;;;;;;5024818;28;20102;-83
2023/12/12 03:07:17;;;;;;;11.13;5.30;;;;;;;;;;5021174;28;20030;-83
2023/12/12 03:09:43;;;;;;;13.48;5.50;;;;;;;;;;5022073;28;20080;-84
2023/12/12 03:12:08;;;;;;;13.07;5.63;;;;;;;;;;5022986;28;20029;-82
2023/12/12 03:14:34;;;;;;;13.30;5.68;;;;;;;;;;5023703;28;20071;-83
2023/12/12 03:17:00;;;;;;;12.68;5.88;;;;;;;;;;5020441;28;20126;-83
2023/12/12 03:19:26;;;;;;;10.82;5.00;;;;;;;;;;5005683;28;20412;-83
2023/12/12 03:21:52;;;;;;;15.57;5.70;;;;;;;;;;5022991;28;20034;-83
2023/12/12 03:24:17;;;;;;;11.13;5.35;;;;;;;;;;5023461;28;20079;-83
2023/12/12 03:26:43;;;;;;;12.55;5.45;;;;;;;;;;5005248;28;20391;-83
2023/12/12 03:29:09;;;;;;;11.73;5.60;;;;;;;;;;5024750;28;20079;-82
2023/12/12 03:31:34;;;;;;;14.10;5.35;;;;;;;;;;5024264;28;20025;-83
2023/12/12 03:34:00;;;;;;;13.65;5.43;;;;;;;;;;5005819;28;20133;-83
2023/12/12 03:36:28;;;;;;;11.82;5.15;;;;;;;;;;5023212;28;20132;-82
2023/12/12 03:38:53;;;;;;;9.43;5.10;;;;;;;;;;5022269;28;20090;-82
2023/12/12 03:41:20;;;;;;;9.52;4.90;;;;;;;;;;5021592;28;20034;-84
2023/12/12 03:43:45;;;;;;;10.98;4.75;;;;;;;;;;5022339;28;20026;-83
2023/12/12 03:46:14;;;;;;;10.13;4.85;;;;;;;;;;5010689;28;20040;-83
2023/12/12 03:48:39;;;;;;;12.93;5.07;;;;;;;;;;5020331;28;21812;-83
2023/12/12 03:51:15;;;;;;;12.35;4.40;;;;;;;;;;5023761;28;20029;-83
2023/12/12 03:53:40;;;;;;;9.65;4.35;;;;;;;;;;5020922;28;20072;-83
2023/12/12 03:56:07;;;;;;;11.20;4.82;;;;;;;;;;5002998;28;20426;-83
2023/12/12 03:58:33;;;;;;;10.30;4.30;;;;;;;;;;5023969;28;20025;-82
2023/12/12 04:00:59;;;;;;;11.80;4.72;;;;;;;;;;5006164;28;20115;-83
2023/12/12 04:03:25;;;;;;;9.82;4.35;;;;;;;;;;5019910;28;20435;-83
2023/12/12 04:05:50;;;;;;;12.50;4.57;;;;;;;;;;5013595;28;20034;-83
2023/12/12 04:08:16;;;;;;;12.35;4.60;;;;;;;;;;5004719;28;20033;-83
2023/12/12 04:10:41;;;;;;;9.23;4.50;;;;;;;;;;5005235;28;20372;-83
2023/12/12 04:13:07;;;;;;;12.35;4.72;;;;;;;;;;5028144;28;20388;-83
2023/12/12 04:15:32;;;;;;;12.95;4.90;;;;;;;;;;4998431;28;20075;-83
2023/12/12 04:17:58;;;;;;;13.88;4.63;;;;;;;;;;5028820;28;20034;-82
2023/12/12 04:20:23;;;;;;;10.43;4.45;;;;;;;;;;5013250;28;20037;-83
2023/12/12 04:22:49;;;;;;;10.05;4.38;;;;;;;;;;5006759;28;20373;-84
2023/12/12 04:25:16;;;;;;;10.23;4.13;;;;;;;;;;5026781;28;20034;-83
2023/12/12 04:27:42;;;;;;;12.80;4.20;;;;;;;;;;5024287;28;20029;-83
2023/12/12 04:30:08;;;;;;;12.65;4.28;;;;;;;;;;5009444;28;20040;-83
2023/12/12 04:32:34;;;;;;;10.13;4.00;;;;;;;;;;5029620;28;20037;-83
2023/12/12 04:35:00;;;;;;;11.40;4.13;;;;;;;;;;5029927;28;20908;-83
2023/12/12 04:37:26;;;;;;;12.38;4.13;;;;;;;;;;5017190;28;20022;-94
2023/12/12 04:39:52;;;;;;;13.57;3.90;;;;;;;;;;5001198;28;20084;-92
2023/12/12 04:42:18;;;;;;;13.10;5.05;;;;;;;;;;5000382;28;20102;-93
2023/12/12 04:44:43;;;;;;;10.18;3.42;;;;;;;;;;4999174;28;20072;-92
2023/12/12 04:47:09;;;;;;;12.18;3.80;;;;;;;;;;5000082;28;20095;-93
2023/12/12 04:49:35;;;;;;;13.63;3.63;;;;;;;;;;5011960;28;20467;-92
2023/12/12 04:52:01;;;;;;;10.80;4.00;;;;;;;;;;4998133;28;20030;-92
2023/12/12 04:54:27;;;;;;;9.30;3.72;;;;;;;;;;4982375;28;20035;-93
2023/12/12 04:56:52;;;;;;;17.45;4.32;;;;;;;;;;4995647;28;20181;-93
2023/12/12 04:59:19;;;;;;;11.45;4.00;;;;;;;;;;5017092;28;20720;-94
2023/12/12 05:01:45;;;;;;;15.13;4.40;;;;;;;;;;4981863;28;20033;-93
2023/12/12 05:04:11;;;;;;;18.17;4.60;;;;;;;;;;4997274;28;20116;-93
2023/12/12 05:06:36;;;;;;;19.90;5.13;;;;;;;;;;5008499;28;20056;-93
2023/12/12 05:09:03;;;;;;;18.00;4.43;;;;;;;;;;4982113;28;20045;-92
2023/12/12 05:11:29;;;;;;;16.77;4.85;;;;;;;;;;5000320;28;20492;-93
2023/12/12 05:13:55;;;;;;;17.08;3.92;;;;;;;;;;4981936;28;20041;-94
2023/12/12 05:16:20;;;;;;;21.30;4.32;;;;;;;;;;4998425;28;20029;-93
2023/12/12 05:18:46;;;;;;;11.00;4.53;;;;;;;;;;4999093;28;20526;-84
2023/12/12 05:21:11;;;;;;;15.68;4.65;;;;;;;;;;5024905;28;20030;-84
2023/12/12 05:23:37;;;;;;;13.50;4.45;;;;;;;;;;5022190;28;20032;-84
2023/12/12 05:26:04;;;;;;;10.10;4.20;;;;;;;;;;5006096;28;20026;-83
2023/12/12 05:28:31;;;;;;;14.00;4.10;;;;;;;;;;5010709;28;20041;-83
2023/12/12 05:30:57;;;;;;;15.18;4.53;;;;;;;;;;5021213;28;20029;-83
2023/12/12 05:33:22;;;;;;;12.70;4.55;;;;;;;;;;4988267;28;20033;-83
2023/12/12 05:35:48;;;;;;;19.35;5.10;;;;;;;;;;5025670;28;20121;-83
2023/12/12 05:38:13;;;;;;;14.20;4.60;;;;;;;;;;5025288;28;20034;-84
2023/12/12 05:40:39;;;;;;;16.33;4.70;;;;;;;;;;5029275;28;20040;-83
2023/12/12 05:43:04;;;;;;;18.80;5.25;;;;;;;;;;5009371;28;20128;-83
2023/12/12 05:45:30;;;;;;;10.20;4.03;;;;;;;;;;5000976;28;20033;-83
2023/12/12 05:47:56;;;;;;;11.43;4.10;;;;;;;;;;5007939;28;20033;-83
2023/12/12 05:50:23;;;;;;;18.60;4.47;;;;;;;;;;5010658;28;20091;-83
2023/12/12 05:52:52;;;;;;;14.70;4.25;;;;;;;;;;4997166;28;20120;-83
2023/12/12 05:55:18;;;;;;;17.10;4.85;;;;;;;;;;5011166;28;20033;-82
2023/12/12 05:57:43;;;;;;;16.48;4.65;;;;;;;;;;5032650;28;20274;-83
2023/12/12 06:00:10;;;;;;;16.65;4.30;;;;;;;;;;5025279;28;20037;-83
2023/12/12 06:02:36;;;;;;;13.15;4.53;;;;;;;;;;5024653;28;20103;-83
2023/12/12 06:05:07;;;;;;;15.15;4.72;;;;;;;;;;5009268;28;20488;-83
2023/12/12 06:07:36;;;;;;;17.00;4.53;;;;;;;;;;5029286;28;20059;-82
2023/12/12 06:10:06;;;;;;;16.75;4.88;;;;;;;;;;5026845;28;20056;-83
2023/12/12 06:12:32;;;;;;;16.40;4.72;;;;;;;;;;5018607;28;20396;-83
2023/12/12 06:14:58;;;;;;;15.05;4.32;;;;;;;;;;5015632;28;20030;-83
2023/12/12 06:17:23;;;;;;;17.08;4.97;;;;;;;;;;5008923;28;20481;-83
2023/12/12 06:19:49;;;;;;;14.88;4.55;;;;;;;;;;5031843;28;20443;-83
2023/12/12 06:22:15;;;;;;;14.80;4.22;;;;;;;;;;5025728;28;20026;-84
2023/12/12 06:24:41;;;;;;;15.63;4.32;;;;;;;;;;5029943;28;20428;-84
2023/12/12 06:27:06;;;;;;;18.23;5.15;;;;;;;;;;5007375;28;20064;-90
2023/12/12 06:29:37;;;;;;;12.15;4.15;;;;;;;;;;5000022;28;20556;-90
2023/12/12 06:32:02;;;;;;;16.77;4.47;;;;;;;;;;5014445;28;20111;-91
2023/12/12 06:34:28;;;;;;;13.93;4.10;;;;;;;;;;5000004;28;20124;-90
2023/12/12 06:36:54;;;;;;;16.30;4.38;;;;;;;;;;4985865;28;20061;-85
2023/12/12 06:39:20;;;;;;;12.73;4.00;;;;;;;;;;5029156;28;20040;-91
2023/12/12 06:41:45;;;;;;;16.08;4.40;;;;;;;;;;5019355;28;20065;-91
2023/12/12 06:44:11;;;;;;;15.40;4.55;;;;;;;;;;5007531;28;20036;-89
2023/12/12 06:46:36;;;;;;;12.77;4.28;;;;;;;;;;5000975;28;20087;-91
2023/12/12 06:49:07;;;;;;;12.40;3.70;;;;;;;;;;5002046;28;20480;-91
2023/12/12 06:51:33;;;;;;;13.48;3.75;;;;;;;;;;4998887;28;20116;-90
2023/12/12 06:53:59;;;;;;;12.10;4.00;;;;;;;;;;5001573;28;20119;-91
2023/12/12 06:56:28;;;;;;;15.43;3.97;;;;;;;;;;5001145;28;20483;-91
2023/12/12 06:58:54;;;;;;;14.43;3.88;;;;;;;;;;4990053;28;20050;-83
2023/12/12 07:01:20;;;;;;;19.50;4.43;;;;;;;;;;5035791;28;20029;-84
2023/12/12 07:03:45;;;;;;;19.88;4.07;;;;;;;;;;5014529;28;20071;-84
2023/12/12 07:06:11;;;;;;;17.65;4.28;;;;;;;;;;5020803;28;20029;-85
2023/12/12 07:08:36;;;;;;;14.65;4.20;;;;;;;;;;5018160;28;20033;-85
2023/12/12 07:11:04;;;;;;;18.85;3.88;;;;;;;;;;4994099;28;20030;-84
2023/12/12 07:13:30;;;;;;;10.30;3.92;;;;;;;;;;5007238;28;20036;-84
2023/12/12 07:15:58;;;;;;;15.82;4.07;;;;;;;;;;5023961;28;20104;-85
2023/12/12 07:18:24;;;;;;;13.40;4.00;;;;;;;;;;5029408;28;20036;-84
2023/12/12 07:20:49;;;;;;;17.65;4.72;;;;;;;;;;5010258;28;20025;-85
2023/12/12 07:23:15;;;;;;;15.65;4.10;;;;;;;;;;4992546;28;20388;-85
2023/12/12 07:25:42;;;;;;;15.50;5.10;;;;;;;;;;5007457;28;20056;-85
2023/12/12 07:28:07;;;;;;;16.05;4.32;;;;;;;;;;5027346;28;20087;-84
2023/12/12 07:30:33;;;;;;;19.58;4.25;;;;;;;;;;4995378;28;20063;-85
2023/12/12 07:32:58;;;;;;;16.95;4.50;;;;;;;;;;4990220;28;20040;-85
2023/12/12 07:35:24;;;;;;;16.55;4.15;;;;;;;;;;5005408;28;20036;-85
2023/12/12 07:37:50;;;;;;;18.45;4.55;;;;;;;;;;5006485;28;20120;-85
2023/12/12 07:40:17;;;;;;;14.32;3.80;;;;;;;;;;4993273;28;20117;-86
2023/12/12 07:42:44;;;;;;;14.20;3.50;;;;;;;;;;4992902;28;20120;-85
2023/12/12 07:45:10;;;;;;;18.50;4.53;;;;;;;;;;5009533;28;20412;-85
2023/12/12 07:47:35;;;;;;;20.55;4.50;;;;;;;;;;4979833;28;20087;-85
2023/12/12 07:50:05;;;;;;;22.10;4.85;;;;;;;;;;4995056;28;20042;-86
2023/12/12 07:52:31;;;;;;;15.32;4.15;;;;;;;;;;5011632;28;20022;-85
2023/12/12 07:54:57;;;;;;;15.93;4.47;;;;;;;;;;5014233;28;20060;-85
2023/12/12 07:57:22;;;;;;;17.08;4.35;;;;;;;;;;5002688;28;20046;-85
2023/12/12 07:59:48;;;;;;;15.73;4.60;;;;;;;;;;4997530;28;20049;-85
2023/12/12 08:02:13;;;;;;;14.50;4.05;;;;;;;;;;5023752;28;20479;-85
2023/12/12 08:04:41;;;;;;;16.73;3.63;;;;;;;;;;5012432;28;20064;-85
2023/12/12 08:07:06;;;;;;;23.02;4.93;;;;;;;;;;5000316;28;20125;-91
2023/12/12 08:09:32;;;;;;;17.50;3.88;;;;;;;;;;4984855;28;20452;-92
2023/12/12 08:11:57;;;;;;;16.67;4.93;;;;;;;;;;4985013;28;20416;-91
2023/12/12 08:14:23;;;;;;;23.27;5.22;;;;;;;;;;4981725;28;20026;-92
2023/12/12 08:16:48;;;;;;;22.42;4.70;;;;;;;;;;5001614;28;20046;-91
2023/12/12 08:19:15;;;;;;;13.20;3.95;;;;;;;;;;4998075;28;20026;-91
2023/12/12 08:21:41;;;;;;;20.92;4.18;;;;;;;;;;5009678;28;20422;-91
2023/12/12 08:24:07;;;;;;;19.73;4.50;;;;;;;;;;5008152;28;20164;-90
2023/12/12 08:26:42;;;;;;;14.18;4.22;;;;;;;;;;4999935;28;20087;-91
2023/12/12 08:29:09;;;;;;;22.95;4.60;;;;;;;;;;5009237;28;20112;-91
2023/12/12 08:31:35;;;;;;;17.83;4.47;;;;;;;;;;4993189;28;20026;-91
2023/12/12 08:34:01;;;;;;;16.08;4.60;;;;;;;;;;5006175;28;20036;-92
2023/12/12 08:36:27;;;;;;;14.05;4.10;;;;;;;;;;4999810;28;20068;-91
2023/12/12 08:38:53;;;;;;;14.63;4.47;;;;;;;;;;4986582;28;20076;-93
2023/12/12 08:41:21;;;;;;;21.35;4.70;;;;;;;;;;5019371;28;20030;-91
2023/12/12 08:43:47;;;;;;;17.35;4.22;;;;;;;;;;5003751;28;20034;-91
2023/12/12 08:46:12;;;;;;;18.45;4.10;;;;;;;;;;5029090;28;20033;-91
2023/12/12 08:48:38;;;;;;;15.57;4.68;;;;;;;;;;5003948;28;20033;-91
2023/12/12 08:51:04;;;;;;;20.92;4.97;;;;;;;;;;5018233;28;20434;-91
2023/12/12 08:53:29;;;;;;;12.77;4.00;;;;;;;;;;4986285;28;20030;-92
2023/12/12 08:55:55;;;;;;;15.50;4.50;;;;;;;;;;5004619;28;20040;-91
2023/12/12 08:58:25;;;;;;;16.02;4.90;;;;;;;;;;4987490;28;20123;-92
2023/12/12 09:00:54;;;;;;;15.57;4.45;;;;;;;;;;5003078;28;20117;-91
2023/12/12 09:03:21;;;;;;;21.45;4.78;;;;;;;;;;5009247;28;20029;-91
2023/12/12 09:05:47;;;;;;;15.10;4.70;;;;;;;;;;5000833;28;20619;-92
2023/12/12 09:08:12;;;;;;;13.48;4.70;;;;;;;;;;5018517;28;20121;-92
2023/12/12 09:10:38;;;;;;;19.25;5.30;;;;;;;;;;5012706;28;20071;-91
2023/12/12 09:13:04;;;;;;;19.08;5.35;;;;;;;;;;5002596;28;20120;-91
2023/12/12 09:15:31;;;;;;;18.55;4.60;;;;;;;;;;5004048;28;20053;-92
2023/12/12 09:17:57;;;;;;;15.98;4.40;;;;;;;;;;5005222;28;20040;-91
2023/12/12 09:20:23;;;;;;;18.08;4.43;;;;;;;;;;5029764;28;20036;-91
2023/12/12 09:22:48;;;;;;;14.10;4.88;;;;;;;;;;4990902;28;20041;-91
2023/12/12 09:25:14;;;;;;;12.80;4.78;;;;;;;;;;5010527;28;20462;-91
2023/12/12 09:27:39;;;;;;;16.23;4.40;;;;;;;;;;4985912;28;20060;-91
2023/12/12 09:30:06;;;;;;;12.43;4.18;;;;;;;;;;4987080;28;20581;-90
2023/12/12 09:32:32;;;;;;;15.30;4.38;;;;;;;;;;5003293;28;20038;-89
2023/12/12 09:34:57;;;;;;;13.95;4.28;;;;;;;;;;5005399;28;20037;-89
2023/12/12 09:37:23;;;;;;;19.17;4.53;;;;;;;;;;5001820;28;20454;-90
2023/12/12 09:39:49;;;;;;;17.23;5.07;;;;;;;;;;4988649;28;20527;-88
2023/12/12 09:42:17;;;;;;;17.30;5.10;;;;;;;;;;5025201;28;20107;-89
2023/12/12 09:44:51;;;;;;;15.07;4.70;;;;;;;;;;5020499;28;20463;-89
2023/12/12 09:47:17;;;;;;;15.18;4.55;;;;;;;;;;5040970;28;20021;-90
2023/12/12 09:49:43;;;;;;;18.88;5.28;;;;;;;;;;4991127;28;20053;-90
2023/12/12 09:52:09;;;;;;;21.73;5.50;;;;;;;;;;4994149;28;20064;-90
2023/12/12 09:54:36;;;;;;;17.10;4.88;;;;;;;;;;5014301;28;20126;-89
2023/12/12 09:57:03;;;;;;;20.38;5.50;;;;;;;;;;5009576;28;20026;-90
2023/12/12 09:59:28;;;;;;;19.75;4.88;;;;;;;;;;5011229;28;20029;-89
2023/12/12 10:01:56;;;;;;;19.55;4.78;;;;;;;;;;4996364;28;20057;-89
2023/12/12 10:04:23;;;;;;;17.70;5.60;;;;;;;;;;5006800;28;20061;-90
2023/12/12 10:06:55;;;;;;;21.75;5.32;;;;;;;;;;5000109;28;20084;-89
2023/12/12 10:09:21;;;;;;;17.25;4.50;;;;;;;;;;5018711;28;20052;-88
2023/12/12 10:11:47;;;;;;;19.30;4.95;;;;;;;;;;4983243;28;20512;-90
2023/12/12 10:14:12;;;;;;;15.75;5.38;;;;;;;;;;5013329;28;20025;-90
2023/12/12 10:16:37;;;;;;;16.63;4.68;;;;;;;;;;4982246;28;20120;-90
2023/12/12 10:19:03;;;;;;;15.50;5.28;;;;;;;;;;4998980;28;20037;-90
2023/12/12 10:21:28;;;;;;;16.70;5.38;;;;;;;;;;4989344;28;20090;-90
2023/12/12 10:23:54;;;;;;;14.13;5.10;;;;;;;;;;5020708;28;20026;-90
2023/12/12 10:26:29;;;;;;;17.65;4.90;;;;;;;;;;5021969;28;20449;-91
2023/12/12 10:28:55;;;;;;;14.85;4.78;;;;;;;;;;5001413;28;20026;-85
2023/12/12 10:31:22;;;;;;;17.38;5.00;;;;;;;;;;5033400;28;20021;-85
2023/12/12 10:33:51;;;;;;;18.33;4.85;;;;;;;;;;5033887;28;20021;-85
2023/12/12 10:36:18;;;;;;;13.25;4.45;;;;;;;;;;5021783;28;20040;-85
2023/12/12 10:38:44;;;;;;;16.73;5.05;;;;;;;;;;5034316;28;20021;-84
2023/12/12 10:41:13;;;;;;;18.48;4.97;;;;;;;;;;5035061;28;20041;-85
2023/12/12 10:43:40;;;;;;;17.77;4.45;;;;;;;;;;5015826;28;20215;-85
2023/12/12 10:46:12;;;;;;;13.43;4.50;;;;;;;;;;5023404;28;20040;-85
2023/12/12 10:48:49;;;;;;;13.82;4.63;;;;;;;;;;5041781;28;20025;-85
2023/12/12 10:51:17;;;;;;;14.15;4.85;;;;;;;;;;5026351;28;20025;-85
2023/12/12 10:53:44;;;;;;;13.63;4.20;;;;;;;;;;5027650;28;20029;-85
2023/12/12 10:56:14;;;;;;;13.02;4.53;;;;;;;;;;5034835;28;20060;-85
2023/12/12 10:58:42;;;;;;;14.75;4.30;;;;;;;;;;5028890;28;20382;-85
2023/12/12 11:01:09;;;;;;;17.20;4.60;;;;;;;;;;5027978;28;20120;-85
2023/12/12 11:03:36;;;;;;;16.05;4.47;;;;;;;;;;5039894;28;20380;-85
2023/12/12 11:06:03;;;;;;;12.75;4.05;;;;;;;;;;5000092;28;20045;-85
2023/12/12 11:08:29;;;;;;;12.05;3.78;;;;;;;;;;5032098;28;20082;-85
2023/12/12 11:10:55;;;;;;;16.00;4.68;;;;;;;;;;5032460;28;20495;-84
2023/12/12 11:13:24;;;;;;;13.80;4.10;;;;;;;;;;5002564;28;20064;-84
2023/12/12 11:15:51;;;;;;;10.73;3.78;;;;;;;;;;5012233;28;20026;-85
2023/12/12 11:18:20;;;;;;;11.98;3.55;;;;;;;;;;5015776;28;20057;-91
2023/12/12 11:20:46;;;;;;;9.95;3.33;;;;;;;;;;5009178;28;20045;-91
2023/12/12 11:23:52;;;;;;;18.15;4.10;;;;;;;;;;5000783;28;20633;-91
2023/12/12 11:26:19;;;;;;;10.35;3.38;;;;;;;;;;5018455;28;20037;-90
2023/12/12 11:28:45;;;;;;;10.38;3.03;;;;;;;;;;5003740;28;20116;-92
2023/12/12 11:31:19;;;;;;;13.18;3.53;;;;;;;;;;5004951;28;20030;-92
2023/12/12 11:34:07;;;;;;;8.20;3.13;;;;;;;;;;5001769;28;20112;-91
2023/12/12 11:36:59;;;;;;;9.00;3.10;;;;;;;;;;5001091;28;20038;-92
2023/12/12 11:39:46;;;;;;;9.68;3.08;;;;;;;;;;5017538;28;20117;-86
2023/12/12 11:42:24;;;;;;;9.38;3.10;;;;;;;;;;5017300;28;20021;-86
2023/12/12 11:44:52;;;;;;;10.38;2.92;;;;;;;;;;5028393;28;20025;-86
2023/12/12 11:47:24;;;;;;;13.85;3.10;;;;;;;;;;5018093;28;20025;-85
2023/12/12 11:49:50;;;;;;;7.45;2.33;;;;;;;;;;5010363;28;20029;-85
2023/12/12 11:52:38;;;;;;;9.88;2.78;;;;;;;;;;5033139;28;20025;-85
2023/12/12 11:55:08;;;;;;;9.95;2.28;;;;;;;;;;5020425;28;20030;-85
2023/12/12 11:57:33;;;;;;;8.63;2.20;;;;;;;;;;5007288;28;20034;-85
2023/12/12 12:00:00;;;;;;;9.90;2.70;;;;;;;;;;5019125;28;20488;-85
2023/12/12 12:02:32;;;;;;;9.15;2.50;;;;;;;;;;5017850;28;20498;-85
2023/12/12 12:04:57;;;;;;;10.93;2.58;;;;;;;;;;5015164;28;20261;-85
2023/12/12 12:07:24;;;;;;;7.32;2.70;;;;;;;;;;5039297;28;20029;-85
2023/12/12 12:09:52;;;;;;;9.60;2.90;;;;;;;;;;4995142;28;20040;-84
2023/12/12 12:12:18;;;;;;;8.00;2.95;;;;;;;;;;5015955;28;20068;-85
2023/12/12 12:14:43;;;;;;;7.90;2.55;;;;;;;;;;5009507;28;20049;-85
2023/12/12 12:17:09;;;;;;;7.65;2.70;;;;;;;;;;5002101;28;20067;-85
2023/12/12 12:19:37;;;;;;;9.40;2.72;;;;;;;;;;5032513;28;20021;-84
2023/12/12 12:22:10;;;;;;;8.02;2.83;;;;;;;;;;5032695;28;20022;-85
2023/12/12 12:24:45;;;;;;;7.93;3.15;;;;;;;;;;5013310;28;20041;-84
2023/12/12 12:27:14;;;;;;;6.88;2.40;;;;;;;;;;5030252;28;20079;-85
2023/12/12 12:29:41;;;;;;;7.55;2.75;;;;;;;;;;5016044;28;20026;-84
2023/12/12 12:32:16;;;;;;;7.82;2.80;;;;;;;;;;5027138;28;20492;-84
2023/12/12 12:34:43;;;;;;;10.30;2.60;;;;;;;;;;5031672;28;20040;-84
2023/12/12 12:37:35;;;;;;;6.82;2.50;;;;;;;;;;5038387;28;20072;-92
2023/12/12 12:40:05;;;;;;;7.55;2.80;;;;;;;;;;5016687;28;20075;-91
2023/12/12 12:42:33;;;;;;;6.03;2.30;;;;;;;;;;5002178;28;20479;-90
2023/12/12 12:44:58;;;;;;;8.25;2.78;;;;;;;;;;5012853;28;20043;-89
2023/12/12 12:47:24;;;;;;;6.45;2.38;;;;;;;;;;4995289;28;20395;-90
2023/12/12 12:49:49;;;;;;;6.90;2.90;;;;;;;;;;4989232;28;20037;-91
2023/12/12 12:52:15;;;;;;;7.43;2.92;;;;;;;;;;5006106;28;20395;-91
2023/12/12 12:54:40;;;;;;;11.45;4.18;;;;;;;;;;5003970;28;20136;-90
2023/12/12 12:57:06;;;;;;;8.27;3.00;;;;;;;;;;5009356;28;20060;-84
2023/12/12 12:59:31;;;;;;;11.48;3.60;;;;;;;;;;5022163;28;20033;-83
2023/12/12 13:01:57;;;;;;;12.50;3.55;;;;;;;;;;5029714;28;20037;-83
2023/12/12 13:04:22;;;;;;;8.52;3.80;;;;;;;;;;5019800;28;20025;-83
2023/12/12 13:06:49;;;;;;;8.63;3.72;;;;;;;;;;5033936;28;20036;-83
2023/12/12 13:09:17;;;;;;;9.75;3.92;;;;;;;;;;5042266;28;20029;-83
2023/12/12 13:11:43;;;;;;;9.85;3.95;;;;;;;;;;5022025;28;20033;-83
2023/12/12 13:14:11;;;;;;;9.82;4.50;;;;;;;;;;5017719;28;20037;-83
2023/12/12 13:16:38;;;;;;;9.25;3.60;;;;;;;;;;5012273;28;20034;-83
2023/12/12 13:19:04;;;;;;;10.88;3.88;;;;;;;;;;5026848;28;20532;-83
2023/12/12 13:21:30;;;;;;;9.75;3.53;;;;;;;;;;5035260;28;20039;-83
2023/12/12 13:23:56;;;;;;;9.18;4.10;;;;;;;;;;5031245;28;20038;-83
2023/12/12 13:26:23;;;;;;;9.55;3.92;;;;;;;;;;5026503;28;20606;-83
2023/12/12 13:28:51;;;;;;;8.95;3.72;;;;;;;;;;5022673;28;20024;-83
2023/12/12 13:31:17;;;;;;;11.80;4.40;;;;;;;;;;5026141;28;20033;-83
2023/12/12 13:33:43;;;;;;;10.43;4.00;;;;;;;;;;5025152;28;20061;-83
2023/12/12 13:36:09;;;;;;;10.63;4.03;;;;;;;;;;5027651;28;20072;-83
2023/12/12 13:38:35;;;;;;;9.65;4.03;;;;;;;;;;5027618;28;20041;-83
2023/12/12 13:41:02;;;;;;;12.02;4.80;;;;;;;;;;5026021;28;20116;-83
2023/12/12 13:43:27;;;;;;;10.32;3.90;;;;;;;;;;4996671;28;20188;-83
2023/12/12 13:45:55;;;;;;;8.70;4.10;;;;;;;;;;4992153;28;20132;-83
2023/12/12 13:48:21;;;;;;;8.63;4.80;;;;;;;;;;5026288;28;20045;-89
2023/12/12 13:50:46;;;;;;;6.63;4.10;;;;;;;;;;4982617;28;20031;-89
2023/12/12 13:53:12;;;;;;;12.52;4.55;;;;;;;;;;4996701;28;20434;-89
2023/12/12 13:55:37;;;;;;;7.03;3.42;;;;;;;;;;4996979;28;20040;-90
2023/12/12 13:58:03;;;;;;;7.20;3.83;;;;;;;;;;4993967;28;20145;-90
2023/12/12 14:00:29;;;;;;;7.75;3.47;;;;;;;;;;4982046;28;20076;-89
2023/12/12 14:02:54;;;;;;;9.05;4.00;;;;;;;;;;4999100;28;20480;-90
2023/12/12 14:05:20;;;;;;;6.90;3.75;;;;;;;;;;4999961;28;20510;-90
2023/12/12 14:07:45;;;;;;;7.93;3.72;;;;;;;;;;4983464;28;20033;-90
2023/12/12 14:10:11;;;;;;;9.02;3.95;;;;;;;;;;4975236;28;20314;-90
2023/12/12 14:12:37;;;;;;;7.68;4.00;;;;;;;;;;4977664;28;20393;-89
2023/12/12 14:15:03;;;;;;;9.35;3.67;;;;;;;;;;4997961;28;20513;-90
2023/12/12 14:17:29;;;;;;;8.02;4.00;;;;;;;;;;5011145;28;20040;-90
2023/12/12 14:19:54;;;;;;;6.50;3.28;;;;;;;;;;4987747;28;20059;-89
2023/12/12 14:22:20;;;;;;;10.63;4.43;;;;;;;;;;4996817;28;20053;-90
2023/12/12 14:24:46;;;;;;;7.82;4.28;;;;;;;;;;5013763;28;20399;-90
2023/12/12 14:27:12;;;;;;;10.50;4.07;;;;;;;;;;4984235;28;20060;-90
2023/12/12 14:29:37;;;;;;;7.28;4.00;;;;;;;;;;4996033;28;20484;-90
2023/12/12 14:32:05;;;;;;;9.45;4.32;;;;;;;;;;5010644;28;20037;-90